Time;durP1;ratioP1;P1;durP2;ratioP2;P2;SDS_P1;SDS_P2;PMS_P1;PMS_P2;Temp;Humidity;BMP_temperature;BMP_pressure;BME280_temperature;BME280_humidity;BME280_pressure;Samples;Min_cycle;Max_cycle;Signal;HPM_P1;HPM_P2
2022/01/19 00:00:29;;;;;;;8.65;4.75;;;;;;;19.93;33.60;103144.13;7311296;19;130544;-65
2022/01/19 00:02:56;;;;;;;8.02;4.57;;;;;;;19.94;33.68;103143.06;7311569;19;129987;-65
2022/01/19 00:05:23;;;;;;;8.20;5.10;;;;;;;19.90;33.79;103127.88;7312673;19;130881;-66
2022/01/19 00:07:50;;;;;;;13.10;5.93;;;;;;;19.89;33.40;103123.38;7311987;19;131230;-66
2022/01/19 00:10:20;;;;;;;12.52;5.35;;;;;;;19.89;33.67;103119.72;7313009;19;128962;-65
2022/01/19 00:12:47;;;;;;;6.95;5.00;;;;;;;19.87;33.57;103122.72;7309267;19;128805;-65
2022/01/19 00:15:13;;;;;;;8.10;5.03;;;;;;;19.86;33.50;103120.97;7311439;19;130688;-66
2022/01/19 00:17:40;;;;;;;8.25;4.70;;;;;;;19.86;33.40;103120.13;7312194;19;131241;-66
2022/01/19 00:20:08;;;;;;;7.90;4.68;;;;;;;19.84;33.91;103123.09;7311002;19;129156;-65
2022/01/19 00:22:35;;;;;;;9.90;4.53;;;;;;;19.82;33.42;103123.31;7313622;19;129028;-66
2022/01/19 00:25:02;;;;;;;9.40;4.88;;;;;;;19.81;33.79;103104.09;7309222;19;131018;-66
2022/01/19 00:27:29;;;;;;;8.45;4.63;;;;;;;19.79;33.72;103098.72;7314056;19;130583;-65
2022/01/19 00:29:56;;;;;;;6.35;4.20;;;;;;;19.79;34.00;103086.75;7311222;19;130986;-65
2022/01/19 00:32:24;;;;;;;10.27;5.00;;;;;;;19.77;34.00;103069.44;7312577;19;129100;-65
2022/01/19 00:34:51;;;;;;;10.48;4.80;;;;;;;19.76;33.58;103065.78;7310551;19;130800;-65
2022/01/19 00:37:18;;;;;;;12.02;5.20;;;;;;;19.75;34.04;103061.31;7311722;19;130516;-65
2022/01/19 00:39:45;;;;;;;9.32;5.35;;;;;;;19.74;33.56;103047.59;7309984;19;130743;-65
2022/01/19 00:42:11;;;;;;;11.00;4.97;;;;;;;19.72;33.56;103038.63;7311128;19;128983;-65
2022/01/19 00:44:38;;;;;;;9.35;5.38;;;;;;;19.71;34.02;103036.91;7312745;19;131033;-65
2022/01/19 00:47:06;;;;;;;9.30;4.57;;;;;;;19.68;34.04;103044.59;7309445;19;130794;-65
2022/01/19 00:49:32;;;;;;;6.00;4.28;;;;;;;19.67;34.07;103056.75;7312055;19;129036;-66
2022/01/19 00:51:59;;;;;;;10.95;4.45;;;;;;;19.66;34.04;103060.59;7310671;19;129250;-65
2022/01/19 00:54:26;;;;;;;9.55;4.90;;;;;;;19.66;33.92;103060.59;7310901;19;133580;-65
2022/01/19 00:56:53;;;;;;;8.32;4.80;;;;;;;19.66;33.86;103059.72;7309891;19;130743;-65
2022/01/19 00:59:19;;;;;;;11.75;5.20;;;;;;;19.65;33.62;103064.44;7311673;19;130314;-65
2022/01/19 01:01:46;;;;;;;9.73;4.72;;;;;;;19.62;34.07;103062.03;7308079;19;129091;-65
2022/01/19 01:04:14;;;;;;;8.10;4.75;;;;;;;19.62;34.11;103058.44;7310917;19;130672;-65
2022/01/19 01:06:41;;;;;;;6.85;4.45;;;;;;;19.60;34.14;103049.44;7311845;19;130568;-66
2022/01/19 01:09:07;;;;;;;10.20;4.90;;;;;;;19.58;34.09;103038.50;7309056;19;129092;-65
2022/01/19 01:11:37;;;;;;;7.70;4.63;;;;;;;19.58;33.71;103040.44;7311407;19;129601;-66
2022/01/19 01:18:59;;;;;;;8.45;4.65;;;;;;;19.55;34.14;103035.28;7307834;19;128762;-66
2022/01/19 01:21:25;;;;;;;10.02;4.78;;;;;;;19.54;34.16;103028.88;7311455;19;129067;-65
2022/01/19 01:23:52;;;;;;;9.77;4.72;;;;;;;19.52;33.91;103025.44;7311781;19;130889;-66
2022/01/19 01:26:19;;;;;;;7.85;4.55;;;;;;;19.51;33.84;103030.13;7315777;19;130405;-65
2022/01/19 01:28:45;;;;;;;11.57;4.90;;;;;;;19.50;33.72;103011.78;7317532;19;128813;-66
2022/01/19 01:31:13;;;;;;;8.95;4.88;;;;;;;19.49;34.13;103003.63;7315736;19;137241;-66
2022/01/19 01:33:42;;;;;;;8.68;4.80;;;;;;;19.47;33.94;103001.06;7318698;19;130626;-66
2022/01/19 01:36:10;;;;;;;9.75;4.90;;;;;;;19.47;33.93;102994.66;7315785;19;131308;-65
2022/01/19 01:38:37;;;;;;;8.15;4.75;;;;;;;19.46;33.72;102976.28;7318870;19;128714;-66
2022/01/19 01:41:12;;;;;;;8.63;4.32;;;;;;;19.45;33.78;102963.44;7314212;19;129319;-65
2022/01/19 01:43:39;;;;;;;8.55;4.40;;;;;;;19.44;33.76;102961.75;7318434;19;130722;-65
2022/01/19 01:47:13;;;;;;;9.40;4.68;;;;;;;19.44;34.09;102964.53;7315952;19;130724;-66
2022/01/19 01:49:15;;;;;;;9.05;4.40;;;;;;;19.41;33.90;102962.16;7313973;19;129119;-66
2022/01/19 01:54:26;;;;;;;8.80;4.60;;;;;;;19.39;34.04;102962.34;7312205;19;131502;-65
2022/01/19 01:56:53;;;;;;;6.95;4.40;;;;;;;19.37;34.18;102968.09;7316187;19;130584;-65
2022/01/19 01:59:20;;;;;;;7.72;4.20;;;;;;;19.37;34.00;102965.34;7314839;19;129164;-66
2022/01/19 02:01:47;;;;;;;8.50;4.40;;;;;;;19.36;34.29;102962.78;7316387;19;128862;-65
2022/01/19 02:04:14;;;;;;;9.77;4.22;;;;;;;19.35;34.05;102953.56;7316947;19;130781;-66
2022/01/19 02:09:34;;;;;;;5.95;3.88;;;;;;;19.33;34.35;102938.19;7316897;19;129006;-65
2022/01/19 02:23:21;;;;;;;6.05;4.00;;;;;;;19.27;34.33;102909.31;7316776;19;130398;-65
2022/01/19 02:25:50;;;;;;;6.25;4.22;;;;;;;19.26;34.31;102899.28;7313104;19;130794;-66
2022/01/19 02:41:46;;;;;;;5.60;4.00;;;;;;;19.20;33.91;102877.88;7314463;19;131986;-65
2022/01/19 02:44:26;;;;;;;7.00;3.90;;;;;;;19.19;33.81;102865.06;7315731;19;128906;-66
2022/01/19 02:49:39;;;;;;;6.80;3.83;;;;;;;19.19;34.14;102870.63;7316808;19;130748;-66
2022/01/19 02:52:06;;;;;;;5.70;4.07;;;;;;;19.17;34.29;102876.34;7313405;19;129923;-66
2022/01/19 02:54:33;;;;;;;5.38;3.90;;;;;;;19.17;34.14;102861.63;7314588;19;130778;-65
2022/01/19 02:57:02;;;;;;;5.85;3.80;;;;;;;19.16;34.02;102859.91;7312437;19;130646;-65
2022/01/19 03:00:01;;;;;;;6.70;4.05;;;;;;;19.16;34.09;102848.81;7313271;19;130574;-65
2022/01/19 03:10:42;;;;;;;6.60;3.50;;;;;;;19.10;34.44;102841.28;7315334;19;130484;-65
2022/01/19 03:13:08;;;;;;;5.05;3.55;;;;;;;19.11;34.03;102834.69;7313996;19;129411;-65
2022/01/19 03:15:35;;;;;;;5.18;3.47;;;;;;;19.10;34.00;102832.97;7312496;19;129005;-65
2022/01/19 03:18:02;;;;;;;5.53;4.18;;;;;;;19.09;34.33;102829.34;7310178;19;130616;-66
2022/01/19 03:20:29;;;;;;;5.30;3.63;;;;;;;19.08;34.03;102824.84;7313663;19;130783;-66
2022/01/19 03:23:07;;;;;;;5.18;3.40;;;;;;;19.08;34.22;102820.16;7309246;19;128906;-66
2022/01/19 03:25:37;;;;;;;5.05;3.38;;;;;;;19.07;34.32;102812.91;7313534;19;129688;-66
2022/01/19 03:28:05;;;;;;;4.70;3.42;;;;;;;19.06;33.93;102811.19;7309811;19;131642;-66
2022/01/19 03:30:32;;;;;;;4.32;3.40;;;;;;;19.06;34.26;102804.78;7312536;19;130596;-65
2022/01/19 03:32:59;;;;;;;6.68;4.00;;;;;;;19.06;34.07;102805.66;7313584;19;128783;-66
2022/01/19 03:35:26;;;;;;;5.22;3.47;;;;;;;19.05;34.28;102808.59;7312805;19;129858;-65
2022/01/19 03:37:52;;;;;;;5.43;3.67;;;;;;;19.05;34.25;102803.94;7311308;19;130879;-66
2022/01/19 03:40:19;;;;;;;5.00;3.63;;;;;;;19.03;34.44;102794.97;7311101;19;130608;-65
2022/01/19 03:42:46;;;;;;;5.10;3.40;;;;;;;19.04;34.15;102802.22;7313512;19;130700;-65
2022/01/19 03:45:13;;;;;;;5.30;3.22;;;;;;;19.03;34.13;102791.31;7310594;19;133607;-65
2022/01/19 03:47:44;;;;;;;7.28;3.72;;;;;;;19.03;34.48;102781.09;7311838;19;130794;-65
2022/01/19 03:50:11;;;;;;;6.28;3.58;;;;;;;19.02;34.10;102778.50;7309593;19;131030;-66
2022/01/19 03:52:38;;;;;;;6.78;3.65;;;;;;;19.02;34.23;102770.19;7312026;19;129021;-65
2022/01/19 03:55:06;;;;;;;5.93;3.90;;;;;;;19.01;34.41;102762.94;7312509;19;128949;-66
2022/01/19 03:57:32;;;;;;;4.97;3.17;;;;;;;18.99;34.30;102754.81;7310615;19;131399;-65
2022/01/19 03:59:59;;;;;;;5.30;3.50;;;;;;;18.98;34.38;102758.63;7312271;19;130900;-65
2022/01/19 04:02:26;;;;;;;4.93;3.40;;;;;;;18.99;34.11;102756.75;7309191;19;130954;-65
2022/01/19 04:04:59;;;;;;;4.88;3.50;;;;;;;18.98;34.10;102757.78;7313092;19;128816;-66
2022/01/19 04:07:31;;;;;;;5.15;3.10;;;;;;;18.98;34.14;102758.63;7310633;19;130645;-65
2022/01/19 04:09:58;;;;;;;5.30;3.30;;;;;;;18.96;34.30;102749.66;7311706;19;130178;-65
2022/01/19 04:12:42;;;;;;;4.07;3.30;;;;;;;18.95;34.33;102750.75;7309454;19;130290;-65
2022/01/19 04:15:10;;;;;;;7.05;3.80;;;;;;;18.95;34.26;102759.06;7312619;19;128892;-65
2022/01/19 04:17:42;;;;;;;4.57;3.35;;;;;;;18.94;34.19;102762.91;7313154;19;130662;-65
2022/01/19 04:20:10;;;;;;;5.82;3.70;;;;;;;18.91;34.26;102757.75;7309811;19;130584;-65
2022/01/19 04:22:36;;;;;;;4.80;3.25;;;;;;;18.91;34.25;102763.31;7313644;19;128980;-66
2022/01/19 04:25:04;;;;;;;5.38;3.60;;;;;;;18.91;34.08;102768.84;7308242;19;129187;-66
2022/01/19 04:30:10;;;;;;;4.18;3.13;;;;;;;18.90;34.07;102761.59;7309784;19;131256;-65
2022/01/19 04:33:01;;;;;;;4.90;3.67;;;;;;;18.88;34.15;102745.16;7310765;19;128920;-65
2022/01/19 04:35:31;;;;;;;3.92;3.13;;;;;;;18.88;33.98;102749.84;7313547;19;128789;-65
2022/01/19 05:05:31;;;;;;;7.10;3.08;;;;;;;19.23;34.17;102719.31;7315279;19;128893;-65
2022/01/19 05:07:40;;;;;;;;;;;;;;;19.42;33.92;102717.69;7316771;19;136740;-66
2022/01/19 05:15:28;;;;;;;5.03;3.05;;;;;;;20.22;32.77;102717.00;7319230;19;128952;-66
2022/01/19 05:17:55;;;;;;;3.40;2.78;;;;;;;20.49;33.05;102717.00;7314197;19;128895;-65
2022/01/19 05:20:21;;;;;;;4.38;2.88;;;;;;;20.74;32.60;102707.97;7316752;19;130628;-66
2022/01/19 05:22:48;;;;;;;4.00;2.53;;;;;;;21.01;31.90;102711.56;7316073;19;130569;-66
2022/01/19 05:25:15;;;;;;;4.68;2.92;;;;;;;21.25;31.58;102720.25;7316947;19;128829;-66
2022/01/19 05:27:41;;;;;;;4.88;2.70;;;;;;;21.43;31.36;102708.38;7316706;19;129521;-66
2022/01/19 05:30:09;;;;;;;3.03;2.35;;;;;;;21.57;31.44;102702.78;7313119;19;130897;-65
2022/01/19 05:32:35;;;;;;;3.45;2.70;;;;;;;21.66;31.44;102702.28;7317447;19;130567;-65
2022/01/19 05:35:03;;;;;;;4.30;2.97;;;;;;;21.71;30.93;102690.47;7314032;19;128990;-65
2022/01/19 05:37:36;;;;;;;3.03;2.58;;;;;;;21.73;31.12;102693.03;7316994;19;129547;-66
2022/01/19 05:40:08;;;;;;;3.10;2.80;;;;;;;21.74;30.98;102692.81;7315488;19;130616;-66
2022/01/19 05:42:35;;;;;;;3.85;2.60;;;;;;;21.69;30.84;102689.84;7315077;19;131192;-66
2022/01/19 05:45:03;;;;;;;4.40;2.78;;;;;;;21.64;30.95;102686.91;7314051;19;128955;-66
2022/01/19 05:47:30;;;;;;;3.60;2.83;;;;;;;21.58;31.45;102690.56;7316364;19;129043;-66
2022/01/19 05:49:57;;;;;;;3.70;2.60;;;;;;;21.50;31.31;102684.19;7317870;19;131248;-66
2022/01/19 05:52:23;;;;;;;4.00;2.35;;;;;;;21.43;31.55;102680.53;7314144;19;130614;-66
2022/01/19 05:54:50;;;;;;;3.53;2.72;;;;;;;21.34;31.66;102682.75;7316753;19;128883;-66
2022/01/19 05:57:17;;;;;;;3.90;2.80;;;;;;;21.26;31.56;102673.78;7313775;19;130234;-65
2022/01/19 05:59:44;;;;;;;3.67;2.65;;;;;;;21.18;31.83;102674.91;7316415;19;130472;-66
2022/01/19 06:02:11;;;;;;;3.25;2.58;;;;;;;21.11;31.74;102685.22;7313601;19;130635;-65
2022/01/19 06:04:38;;;;;;;3.70;2.40;;;;;;;21.02;31.91;102670.69;7315585;19;128934;-65
2022/01/19 06:07:05;;;;;;;2.88;2.45;;;;;;;20.94;32.17;102668.13;7316484;19;129300;-65
2022/01/19 06:09:50;;;;;;;3.38;2.67;;;;;;;20.86;31.89;102663.69;7314772;19;131860;-65
2022/01/19 06:12:16;;;;;;;3.80;2.88;;;;;;;20.79;32.09;102674.84;7316051;19;131150;-65
2022/01/19 06:14:44;;;;;;;2.85;2.55;;;;;;;20.71;32.32;102672.25;7312226;19;128904;-65
2022/01/19 06:17:13;;;;;;;3.88;2.80;;;;;;;20.63;32.59;102672.50;7315356;19;130476;-65
2022/01/19 06:19:41;;;;;;;17.30;3.05;;;;;;;20.57;32.64;102665.88;7305769;19;130913;-64
2022/01/19 06:22:08;;;;;;;6.38;3.05;;;;;;;20.50;32.76;102663.09;7314772;19;130605;-65
2022/01/19 06:24:35;;;;;;;6.40;2.92;;;;;;;20.43;32.53;102656.72;7311318;19;131573;-66
2022/01/19 06:27:01;;;;;;;19.58;4.22;;;;;;;20.37;32.40;102663.13;7311156;19;131832;-64
2022/01/19 06:29:28;;;;;;;14.45;4.60;;;;;;;20.34;32.18;102655.22;7312590;19;131030;-65
2022/01/19 06:31:55;;;;;;;12.40;4.18;;;;;;;20.36;32.01;102659.50;7314485;19;131274;-65
2022/01/19 06:34:22;;;;;;;14.25;4.10;;;;;;;20.39;32.04;102652.66;7313030;19;129372;-64
2022/01/19 06:36:51;;;;;;;15.02;3.90;;;;;;;20.43;31.75;102652.00;7309911;19;128972;-64
2022/01/19 06:39:21;;;;;;;14.45;3.92;;;;;;;20.49;31.61;102650.28;7312338;19;131117;-65
2022/01/19 06:41:48;;;;;;;12.77;4.03;;;;;;;20.54;32.02;102644.94;7310486;19;129454;-64
2022/01/19 06:44:16;;;;;;;12.80;3.78;;;;;;;20.62;31.87;102637.41;7316749;19;128732;-65
2022/01/19 06:46:44;;;;;;;12.75;3.67;;;;;;;20.70;31.88;102634.38;7311083;19;131333;-65
2022/01/19 06:49:11;;;;;;;11.27;3.53;;;;;;;20.77;31.41;102621.34;7311395;19;130494;-64
2022/01/19 06:51:37;;;;;;;10.43;3.58;;;;;;;20.83;31.53;102628.81;7311963;19;131625;-64
2022/01/19 06:54:04;;;;;;;11.43;3.55;;;;;;;20.90;31.53;102617.66;7314327;19;130072;-64
2022/01/19 06:56:36;;;;;;;14.27;3.60;;;;;;;20.97;31.40;102618.50;7315814;19;128935;-64
2022/01/19 06:59:03;;;;;;;11.13;3.67;;;;;;;21.02;31.27;102613.09;7312477;19;131287;-65
2022/01/19 07:01:32;;;;;;;12.88;3.17;;;;;;;21.09;31.11;102606.66;7315695;19;130665;-65
2022/01/19 07:04:01;;;;;;;15.88;3.50;;;;;;;21.14;31.29;102609.63;7313955;19;128823;-64
2022/01/19 07:06:27;;;;;;;8.05;3.53;;;;;;;21.17;31.28;102610.00;7316355;19;128643;-64
2022/01/19 07:08:54;;;;;;;10.93;3.33;;;;;;;21.23;31.09;102608.31;7314304;19;131402;-64
2022/01/19 07:11:21;;;;;;;5.68;2.92;;;;;;;21.32;31.05;102595.81;7314834;19;130616;-65
2022/01/19 07:13:47;;;;;;;9.27;3.22;;;;;;;21.45;31.15;102589.28;7313363;19;129034;-64
2022/01/19 07:16:16;;;;;;;9.52;3.25;;;;;;;21.63;31.19;102584.91;7315368;19;129755;-65
2022/01/19 07:18:43;;;;;;;6.95;3.28;;;;;;;21.79;30.86;102581.53;7316354;19;130607;-64
2022/01/19 07:21:10;;;;;;;8.70;2.83;;;;;;;21.98;30.85;102578.81;7312485;19;130416;-64
2022/01/19 07:23:37;;;;;;;6.57;2.70;;;;;;;22.13;30.68;102579.31;7316609;19;129242;-65
2022/01/19 07:26:04;;;;;;;6.97;2.83;;;;;;;22.28;30.18;102572.53;7313047;19;128981;-64
2022/01/19 07:28:31;;;;;;;5.85;2.83;;;;;;;22.42;29.84;102570.47;7314859;19;130509;-65
2022/01/19 07:30:58;;;;;;;4.53;2.25;;;;;;;22.53;30.29;102566.00;7309609;19;131361;-65
2022/01/19 07:33:29;;;;;;;5.75;2.70;;;;;;;22.62;30.02;102567.44;7313940;19;128865;-65
2022/01/19 07:35:56;;;;;;;12.82;2.75;;;;;;;22.68;29.59;102563.69;7310347;19;128903;-65
2022/01/19 07:38:23;;;;;;;6.82;2.92;;;;;;;22.74;29.85;102562.75;7312777;19;133206;-64
2022/01/19 07:40:50;;;;;;;13.48;3.13;;;;;;;22.79;29.58;102559.25;7311334;19;130707;-64
2022/01/19 07:43:17;;;;;;;7.75;2.45;;;;;;;22.83;29.27;102560.47;7311717;19;129025;-64
2022/01/19 07:45:44;;;;;;;7.95;2.58;;;;;;;22.88;29.44;102563.44;7315578;19;128942;-64
2022/01/19 07:48:11;;;;;;;7.28;2.35;;;;;;;22.88;29.67;102557.84;7312587;19;130714;-64
2022/01/19 07:50:38;;;;;;;10.43;2.38;;;;;;;22.87;29.13;102567.28;7315441;19;131035;-65
2022/01/19 07:53:05;;;;;;;13.05;3.17;;;;;;;22.83;29.60;102568.00;7311516;19;129003;-64
2022/01/19 07:55:32;;;;;;;6.40;2.33;;;;;;;22.78;29.68;102565.06;7314422;19;131532;-64
2022/01/19 07:58:01;;;;;;;9.73;2.55;;;;;;;22.69;29.58;102568.19;7312908;19;130690;-64
2022/01/19 08:00:29;;;;;;;6.10;2.58;;;;;;;22.61;29.87;102571.31;7313095;19;130509;-64
2022/01/19 08:02:55;;;;;;;6.57;2.80;;;;;;;22.51;29.47;102562.63;7312870;19;129518;-64
2022/01/19 08:05:23;;;;;;;7.25;2.50;;;;;;;22.41;29.77;102552.84;7311919;19;129428;-64
2022/01/19 08:07:49;;;;;;;5.30;2.00;;;;;;;22.31;29.79;102555.34;7314630;19;130801;-64
2022/01/19 08:10:16;;;;;;;9.00;2.47;;;;;;;22.20;29.84;102553.28;7310490;19;130615;-64
2022/01/19 08:12:44;;;;;;;10.75;2.55;;;;;;;22.10;30.35;102557.47;7315396;19;128936;-64
2022/01/19 08:15:10;;;;;;;6.35;2.33;;;;;;;22.01;30.37;102558.00;7310563;19;129383;-64
2022/01/19 08:17:37;;;;;;;6.88;2.30;;;;;;;21.91;30.23;102564.09;7313789;19;132106;-64
2022/01/19 08:20:05;;;;;;;9.63;2.65;;;;;;;21.81;30.87;102562.69;7311634;19;131416;-64
2022/01/19 08:22:32;;;;;;;10.95;2.88;;;;;;;21.70;30.92;102552.28;7311550;19;129043;-64
2022/01/19 08:24:58;;;;;;;8.68;2.38;;;;;;;21.60;30.70;102558.34;7314663;19;129939;-64
2022/01/19 08:27:25;;;;;;;4.80;2.15;;;;;;;21.52;30.83;102551.16;7312030;19;130583;-64
2022/01/19 08:29:52;;;;;;;5.93;2.20;;;;;;;21.43;31.15;102543.28;7313684;19;131284;-64
2022/01/19 08:32:19;;;;;;;9.50;2.55;;;;;;;21.36;30.98;102551.66;7311211;19;129742;-64
2022/01/19 08:35:02;;;;;;;5.85;2.20;;;;;;;21.25;31.25;102550.44;7321281;19;128809;-64
2022/01/19 08:37:29;;;;;;;10.40;2.40;;;;;;;21.17;31.40;102539.59;7317556;19;131024;-64
2022/01/19 08:39:57;;;;;;;4.25;2.50;;;;;;;21.11;31.37;102540.50;7320955;19;130692;-64
2022/01/19 08:42:24;;;;;;;8.73;2.30;;;;;;;21.06;31.32;102555.06;7318621;19;128905;-64
2022/01/19 08:44:52;;;;;;;5.20;2.10;;;;;;;21.02;31.41;102559.41;7317568;19;128749;-64
2022/01/19 08:47:20;;;;;;;10.00;2.63;;;;;;;20.98;31.43;102549.78;7316269;19;131341;-64
2022/01/19 08:49:52;;;;;;;13.77;2.45;;;;;;;20.97;31.55;102536.94;7318547;19;130694;-64
2022/01/19 08:52:20;;;;;;;7.80;2.50;;;;;;;20.93;31.91;102528.19;7320529;19;128992;-64
2022/01/19 08:54:47;;;;;;;7.85;2.30;;;;;;;20.89;31.73;102530.56;7317755;19;128910;-64
2022/01/19 08:57:14;;;;;;;9.98;2.42;;;;;;;20.86;31.61;102531.00;7320808;19;133478;-64
2022/01/19 08:59:41;;;;;;;5.60;2.53;;;;;;;20.85;32.06;102534.88;7316555;19;136351;-64
2022/01/19 09:02:09;;;;;;;4.40;2.35;;;;;;;20.81;31.61;102522.47;7319625;19;128816;-64
2022/01/19 09:04:37;;;;;;;7.25;2.30;;;;;;;20.79;31.71;102516.31;7317405;19;130427;-64
2022/01/19 09:07:04;;;;;;;5.20;2.35;;;;;;;20.78;31.90;102522.06;7316613;19;130588;-64
2022/01/19 09:09:30;;;;;;;5.47;2.15;;;;;;;20.77;32.10;102520.34;7316093;19;131660;-64
2022/01/19 09:11:57;;;;;;;6.68;2.25;;;;;;;20.74;32.04;102516.06;7317069;19;128788;-64
2022/01/19 09:14:24;;;;;;;6.45;2.47;;;;;;;20.72;31.97;102523.78;7320042;19;129063;-64
2022/01/19 09:16:51;;;;;;;6.28;1.88;;;;;;;20.72;32.09;102518.22;7315944;19;131341;-64
2022/01/19 09:19:19;;;;;;;5.70;2.45;;;;;;;20.75;32.21;102527.00;7319173;19;131223;-64
2022/01/19 09:21:48;;;;;;;6.72;2.28;;;;;;;20.83;32.06;102523.09;7310511;19;128912;-64
2022/01/19 09:24:14;;;;;;;4.22;2.35;;;;;;;20.92;31.91;102525.66;7317219;19;129772;-64
2022/01/19 09:26:41;;;;;;;2.35;1.80;;;;;;;21.01;31.64;102515.94;7316577;19;130574;-64
2022/01/19 09:29:08;;;;;;;3.47;1.90;;;;;;;21.11;31.76;102521.03;7317396;19;130811;-64
2022/01/19 09:31:36;;;;;;;6.78;2.10;;;;;;;21.22;31.86;102517.53;7318834;19;130920;-64
2022/01/19 09:34:13;;;;;;;8.32;2.25;;;;;;;21.32;31.28;102520.66;7315958;19;129206;-64
2022/01/19 09:36:45;;;;;;;6.78;2.00;;;;;;;21.41;31.29;102514.78;7317507;19;131268;-64
2022/01/19 09:39:22;;;;;;;6.68;2.15;;;;;;;21.48;31.41;102510.88;7312262;19;130406;-64
2022/01/19 09:41:49;;;;;;;6.55;2.33;;;;;;;21.52;31.09;102506.59;7315992;19;129130;-64
2022/01/19 09:44:21;;;;;;;7.30;2.10;;;;;;;21.55;31.29;102505.28;7313111;19;128961;-64
2022/01/19 09:46:49;;;;;;;7.15;2.33;;;;;;;21.56;30.83;102506.13;7314967;19;130694;-64
2022/01/19 09:49:17;;;;;;;4.43;2.20;;;;;;;21.56;30.91;102494.97;7316484;19;130704;-64
2022/01/19 09:51:46;;;;;;;9.05;2.38;;;;;;;21.51;31.06;102488.19;7314343;19;129470;-65
2022/01/19 09:54:22;;;;;;;6.15;2.47;;;;;;;21.49;30.98;102482.00;7316966;19;130334;-64
2022/01/19 09:56:48;;;;;;;3.50;2.08;;;;;;;21.46;31.01;102470.44;7312743;19;131008;-64
2022/01/19 09:59:17;;;;;;;2.72;1.80;;;;;;;21.41;31.13;102465.56;7316703;19;130605;-64
2022/01/19 10:01:52;;;;;;;7.80;2.20;;;;;;;21.37;31.39;102464.28;7311175;19;129081;-64
2022/01/19 10:04:22;;;;;;;5.07;2.00;;;;;;;21.32;31.50;102469.69;7313920;19;129744;-64
2022/01/19 10:06:49;;;;;;;3.90;1.90;;;;;;;21.26;31.54;102462.25;7309879;19;135326;-65
2022/01/19 10:09:25;;;;;;;10.60;2.25;;;;;;;21.19;31.32;102449.22;7312207;19;130497;-64
2022/01/19 10:17:16;;;;;;;4.00;2.45;;;;;;;21.00;31.42;102433.56;7313687;19;131931;-64
2022/01/19 10:19:48;;;;;;;5.05;2.10;;;;;;;20.95;31.82;102433.38;7302291;19;131579;-65
2022/01/19 10:22:20;;;;;;;4.70;2.05;;;;;;;20.89;31.29;102443.47;7312598;19;128804;-65
2022/01/19 10:24:54;;;;;;;3.63;2.25;;;;;;;20.83;31.34;102450.78;7311834;19;130296;-65
2022/01/19 10:27:34;;;;;;;4.38;2.28;;;;;;;20.79;31.85;102443.13;7312733;19;130546;-64
2022/01/19 10:30:04;;;;;;;4.03;1.88;;;;;;;20.72;31.44;102426.44;7314328;19;131107;-64
2022/01/19 10:32:33;;;;;;;7.25;2.33;;;;;;;20.68;31.73;102423.25;7310039;19;128809;-64
2022/01/19 10:38:14;;;;;;;6.43;2.30;;;;;;;20.60;31.92;102431.88;7348031;19;128764;-64
2022/01/19 10:40:45;;;;;;;5.43;2.38;;;;;;;20.53;31.75;102426.34;7347090;19;129186;-63
2022/01/19 10:43:32;;;;;;;4.13;2.40;;;;;;;20.51;31.65;102422.06;7345777;19;131254;-63
2022/01/19 10:46:20;;;;;;;7.88;2.90;;;;;;;20.46;31.96;102425.53;7344918;19;131107;-63
2022/01/19 10:48:47;;;;;;;5.22;2.40;;;;;;;20.41;31.65;102419.81;7347632;19;129909;-63
2022/01/19 10:51:16;;;;;;;3.17;2.00;;;;;;;20.38;31.85;102421.06;7342968;19;130455;-64
2022/01/19 10:53:46;;;;;;;3.92;2.67;;;;;;;20.36;31.58;102419.59;7347170;19;130951;-63
2022/01/19 10:56:27;;;;;;;8.45;2.50;;;;;;;20.33;31.90;102420.03;7345122;19;132019;-63
2022/01/19 10:58:57;;;;;;;5.35;2.40;;;;;;;20.28;31.78;102420.69;7347421;19;129889;-63
2022/01/19 11:01:39;;;;;;;3.72;2.22;;;;;;;20.25;31.44;102413.66;7345343;19;128691;-64
2022/01/19 11:04:24;;;;;;;4.10;2.38;;;;;;;20.23;31.45;102420.53;7343482;19;131986;-63
2022/01/19 11:06:55;;;;;;;5.40;2.33;;;;;;;20.18;31.76;102401.75;7347272;19;131815;-63
2022/01/19 11:09:25;;;;;;;5.45;2.60;;;;;;;20.16;31.69;102401.09;7342173;19;128912;-64
2022/01/19 11:11:54;;;;;;;6.20;2.45;;;;;;;20.13;31.74;102398.75;7347630;19;131351;-64
2022/01/19 11:14:24;;;;;;;3.90;2.30;;;;;;;20.09;32.07;102392.81;7345243;19;131132;-64
2022/01/19 11:16:51;;;;;;;4.10;2.40;;;;;;;20.07;31.88;102385.75;7345133;19;132086;-63
2022/01/19 11:19:19;;;;;;;4.63;2.13;;;;;;;20.05;31.86;102382.34;7344556;19;130555;-63
2022/01/19 11:22:28;;;;;;;4.07;2.35;;;;;;;20.03;31.79;102392.84;7345367;19;128921;-63
2022/01/19 11:25:22;;;;;;;3.13;2.38;;;;;;;19.98;32.05;102374.84;7347248;19;131169;-64
2022/01/19 11:28:09;;;;;;;4.43;2.72;;;;;;;19.94;31.84;102372.75;7343875;19;134244;-63
2022/01/19 11:30:45;;;;;;;4.10;2.25;;;;;;;19.93;32.08;102366.34;7345550;19;128664;-63
2022/01/19 11:33:15;;;;;;;3.30;2.40;;;;;;;19.90;32.05;102361.22;7342586;19;128958;-64
2022/01/19 11:35:44;;;;;;;4.35;2.33;;;;;;;19.88;31.92;102346.69;7344587;19;132800;-63
2022/01/19 11:38:26;;;;;;;3.83;2.13;;;;;;;19.87;32.05;102339.44;7346109;19;131320;-63
2022/01/19 11:40:53;;;;;;;5.70;2.35;;;;;;;19.84;32.11;102356.53;7342836;19;129604;-63
2022/01/19 11:43:28;;;;;;;4.40;2.22;;;;;;;19.82;32.04;102331.78;7346782;19;128921;-63
2022/01/19 11:46:00;;;;;;;4.38;2.40;;;;;;;19.81;32.19;102340.34;7342085;19;131325;-63
2022/01/19 11:48:32;;;;;;;3.17;2.40;;;;;;;19.78;32.25;102330.50;7326782;19;132413;-63
2022/01/19 11:51:24;;;;;;;2.78;2.08;;;;;;;19.78;32.19;102338.00;7314348;19;130920;-63
2022/01/19 11:54:13;;;;;;;2.80;2.10;;;;;;;19.76;32.21;102323.47;7315194;19;129059;-63
2022/01/19 11:56:58;;;;;;;5.82;2.60;;;;;;;19.73;31.94;102316.44;7316688;19;131141;-64
2022/01/19 11:59:30;;;;;;;3.38;2.28;;;;;;;19.69;31.74;102321.56;7312728;19;131111;-63
2022/01/19 12:02:36;;;;;;;3.88;2.53;;;;;;;19.68;31.94;102314.31;7317227;19;128900;-63
2022/01/19 12:05:38;;;;;;;4.57;2.28;;;;;;;19.66;32.07;102299.81;7314831;19;130938;-63
2022/01/19 12:08:27;;;;;;;5.05;2.47;;;;;;;19.67;32.18;102300.66;7313126;19;131790;-63
2022/01/19 12:11:24;;;;;;;4.03;2.55;;;;;;;19.64;31.98;102292.75;7317025;19;131142;-63
2022/01/19 12:14:19;;;;;;;2.47;2.17;;;;;;;19.63;32.14;102280.81;7312694;19;128973;-63
2022/01/19 12:16:56;;;;;;;3.53;2.53;;;;;;;19.62;32.17;102278.25;7309954;19;129182;-63
2022/01/19 12:19:27;;;;;;;4.82;2.50;;;;;;;19.60;32.19;102263.75;7315906;19;131159;-63
2022/01/19 12:21:58;;;;;;;3.65;2.58;;;;;;;19.60;32.00;102259.03;7311299;19;131371;-64
2022/01/19 12:24:54;;;;;;;2.88;2.10;;;;;;;19.60;32.18;102256.25;7316803;19;128730;-63
2022/01/19 12:27:20;;;;;;;3.15;2.20;;;;;;;19.59;32.04;102251.78;7313528;19;129680;-63
2022/01/19 12:29:50;;;;;;;3.03;2.08;;;;;;;19.60;32.18;102255.41;7316626;19;131358;-63
2022/01/19 12:32:17;;;;;;;3.13;2.15;;;;;;;19.57;32.04;102251.13;7310377;19;131845;-63
2022/01/19 12:35:06;;;;;;;4.15;2.42;;;;;;;19.58;31.98;102252.00;7316105;19;130184;-64
2022/01/19 12:37:32;;;;;;;3.08;2.15;;;;;;;19.56;32.09;102246.69;7314417;19;128651;-63
2022/01/19 12:40:04;;;;;;;3.75;2.28;;;;;;;19.56;32.13;102248.59;7313773;19;131295;-64
2022/01/19 12:42:46;;;;;;;3.03;2.45;;;;;;;19.56;31.94;102246.69;7315956;19;131879;-64
2022/01/19 12:45:27;;;;;;;4.47;2.72;;;;;;;19.56;31.70;102237.50;7311659;19;129030;-64
2022/01/19 12:48:05;;;;;;;4.93;2.40;;;;;;;19.54;32.08;102234.94;7316404;19;129989;-63
2022/01/19 12:50:37;;;;;;;4.85;2.33;;;;;;;19.52;32.07;102226.81;7313732;19;131075;-64
2022/01/19 12:53:11;;;;;;;4.28;2.75;;;;;;;19.51;32.18;102227.06;7315095;19;131692;-64
2022/01/19 12:55:41;;;;;;;3.25;2.65;;;;;;;19.50;32.22;102231.75;7311600;19;129841;-63
2022/01/19 12:58:12;;;;;;;3.30;2.38;;;;;;;19.50;31.98;102219.78;7312458;19;130076;-64
2022/01/19 13:00:39;;;;;;;5.20;2.50;;;;;;;19.48;32.03;102217.25;7313059;19;131039;-63